createdAt,value
2022-09-26T00:00:48.379Z,12.54
2022-09-26T00:03:15.162Z,12.55
2022-09-26T00:05:42.133Z,12.57
2022-09-26T00:08:09.021Z,12.60
2022-09-26T00:10:35.950Z,12.60
2022-09-26T00:13:02.691Z,12.58
2022-09-26T00:15:29.452Z,12.60
2022-09-26T00:17:56.264Z,12.60
2022-09-26T00:20:23.060Z,12.60
2022-09-26T00:22:49.944Z,12.59
2022-09-26T00:25:17.092Z,12.58
2022-09-26T00:27:43.913Z,12.59
2022-09-26T00:30:11.256Z,12.60
2022-09-26T00:32:38.023Z,12.56
2022-09-26T00:35:05.237Z,12.54
2022-09-26T00:37:32.030Z,12.50
2022-09-26T00:39:58.832Z,12.50
2022-09-26T00:42:25.603Z,12.50
2022-09-26T00:44:53.733Z,12.47
2022-09-26T00:47:44.233Z,12.46
2022-09-26T00:50:29.065Z,12.39
2022-09-26T00:53:04.258Z,12.39
2022-09-26T00:55:42.778Z,12.36
2022-09-26T00:58:20.399Z,12.40
2022-09-26T01:00:49.344Z,12.39
2022-09-26T01:03:19.948Z,12.38
2022-09-26T01:05:47.746Z,12.41
2022-09-26T01:08:18.274Z,12.44
2022-09-26T01:10:45.877Z,12.46
2022-09-26T01:13:13.512Z,12.46
2022-09-26T01:15:40.436Z,12.45
2022-09-26T01:18:07.297Z,12.49
2022-09-26T01:20:51.928Z,12.49
2022-09-26T01:23:56.391Z,12.51
2022-09-26T01:26:36.878Z,12.50
2022-09-26T01:29:18.679Z,12.48
2022-09-26T01:32:13.670Z,12.49
2022-09-26T01:34:59.243Z,12.44
2022-09-26T01:37:59.672Z,12.43
2022-09-26T01:40:29.819Z,12.43
2022-09-26T01:43:26.227Z,12.43
2022-09-26T01:46:02.853Z,12.42
2022-09-26T01:48:40.282Z,12.40
2022-09-26T01:51:15.420Z,12.39
2022-09-26T01:53:52.618Z,12.37
2022-09-26T01:56:25.159Z,12.38
2022-09-26T01:59:01.232Z,12.37
2022-09-26T02:01:31.510Z,12.36
2022-09-26T02:04:09.140Z,12.36
2022-09-26T02:06:49.643Z,12.36
2022-09-26T02:09:25.495Z,12.38
2022-09-26T02:12:02.497Z,12.37
2022-09-26T02:14:34.525Z,12.35
2022-09-26T02:17:11.432Z,12.35
2022-09-26T02:19:56.739Z,12.36
2022-09-26T02:22:31.392Z,12.33
2022-09-26T02:24:58.883Z,12.34
2022-09-26T02:27:27.624Z,12.31
2022-09-26T02:29:55.182Z,12.32
2022-09-26T02:32:27.914Z,12.31
2022-09-26T02:34:56.972Z,12.32
2022-09-26T02:37:25.053Z,12.34
2022-09-26T02:39:53.168Z,12.35
2022-09-26T02:42:50.263Z,12.34
2022-09-26T02:45:52.572Z,12.34
2022-09-26T02:48:28.377Z,12.33
2022-09-26T02:51:20.975Z,12.32
2022-09-26T02:53:56.378Z,12.31
2022-09-26T02:56:51.916Z,12.32
2022-09-26T02:59:33.379Z,12.38
2022-09-26T03:02:15.390Z,12.38
2022-09-26T03:04:55.534Z,12.42
2022-09-26T03:07:48.355Z,12.41
2022-09-26T03:10:16.865Z,12.37
2022-09-26T03:12:45.347Z,12.37
2022-09-26T03:15:14.507Z,12.38
2022-09-26T03:17:47.742Z,12.36
2022-09-26T03:20:20.426Z,12.34
2022-09-26T03:22:49.596Z,12.38
2022-09-26T03:25:21.303Z,12.38
2022-09-26T03:27:59.517Z,12.38
2022-09-26T03:30:26.371Z,12.40
2022-09-26T03:33:19.398Z,12.41
2022-09-26T03:35:47.560Z,12.41
2022-09-26T03:38:14.695Z,12.41
2022-09-26T03:40:48.722Z,12.41
2022-09-26T03:43:38.440Z,12.42
2022-09-26T03:46:07.502Z,12.40
2022-09-26T03:48:35.529Z,12.40
2022-09-26T03:51:09.272Z,12.41
2022-09-26T03:53:38.689Z,12.42
2022-09-26T03:56:12.108Z,12.41
2022-09-26T03:58:39.472Z,12.43
2022-09-26T04:01:12.137Z,12.40
2022-09-26T04:03:45.174Z,12.43
2022-09-26T04:06:15.974Z,12.41
2022-09-26T04:08:43.032Z,12.38
2022-09-26T04:11:13.852Z,12.38
2022-09-26T04:13:51.448Z,12.40
2022-09-26T04:16:22.795Z,12.39
2022-09-26T04:18:56.897Z,12.37
2022-09-26T04:21:25.885Z,12.36
2022-09-26T04:23:53.822Z,12.36
2022-09-26T04:26:23.653Z,12.39
2022-09-26T04:28:53.676Z,12.39
2022-09-26T04:31:22.339Z,12.38
2022-09-26T04:33:55.195Z,12.40
2022-09-26T04:36:23.678Z,12.41
2022-09-26T04:38:50.404Z,12.39
2022-09-26T04:41:22.174Z,12.39
2022-09-26T04:43:49.994Z,12.40
2022-09-26T04:46:24.560Z,12.40
2022-09-26T04:48:55.966Z,12.39
2022-09-26T04:51:24.585Z,12.40
2022-09-26T04:53:52.165Z,12.42
2022-09-26T04:56:24.848Z,12.41
2022-09-26T04:58:52.579Z,12.40
2022-09-26T05:01:20.883Z,12.41
2022-09-26T05:04:07.404Z,12.40
2022-09-26T05:06:34.308Z,12.44
2022-09-26T05:09:02.748Z,12.45
2022-09-26T05:11:47.904Z,12.43
2022-09-26T05:14:14.987Z,12.43
2022-09-26T05:16:41.762Z,12.44
2022-09-26T05:19:12.688Z,12.47
2022-09-26T05:21:53.862Z,12.46
2022-09-26T05:24:20.751Z,12.51
2022-09-26T05:26:52.791Z,12.46
2022-09-26T05:29:20.760Z,12.50
2022-09-26T05:31:59.344Z,12.46
2022-09-26T05:34:28.489Z,12.46
2022-09-26T05:36:55.238Z,12.46
2022-09-26T05:39:22.882Z,12.41
2022-09-26T05:41:53.813Z,12.45
2022-09-26T05:44:21.193Z,12.46
2022-09-26T05:46:48.215Z,12.43
2022-09-26T05:49:15.433Z,12.44
2022-09-26T05:51:43.191Z,12.45
2022-09-26T05:54:13.751Z,12.45
2022-09-26T05:56:42.000Z,12.49
2022-09-26T05:59:08.941Z,12.51
2022-09-26T06:01:54.216Z,12.52
2022-09-26T06:04:34.358Z,12.52
2022-09-26T06:07:26.171Z,12.52
2022-09-26T06:09:52.933Z,12.54
2022-09-26T06:12:32.133Z,12.57
2022-09-26T06:14:59.364Z,12.59
2022-09-26T06:17:26.136Z,12.59
2022-09-26T06:19:53.895Z,12.63
2022-09-26T06:22:20.774Z,12.65
2022-09-26T06:24:48.151Z,12.66
2022-09-26T06:27:15.786Z,12.73
2022-09-26T06:29:42.847Z,12.76
2022-09-26T06:32:09.787Z,12.80
2022-09-26T06:34:54.956Z,12.87
2022-09-26T06:37:40.256Z,12.89
2022-09-26T06:40:07.475Z,12.92
2022-09-26T06:42:35.032Z,12.97
2022-09-26T06:45:31.388Z,13.04
2022-09-26T06:48:24.497Z,13.08
2022-09-26T06:51:20.931Z,13.11
2022-09-26T06:53:47.810Z,13.19
2022-09-26T06:56:19.223Z,13.17
2022-09-26T06:58:45.974Z,13.19
2022-09-26T07:01:15.285Z,13.22
2022-09-26T07:03:54.396Z,13.26
2022-09-26T07:06:40.049Z,13.33
2022-09-26T07:09:11.894Z,13.39
2022-09-26T07:12:15.347Z,13.40
2022-09-26T07:14:43.391Z,13.40
2022-09-26T07:17:30.383Z,13.44
2022-09-26T07:20:19.166Z,13.48
2022-09-26T07:22:56.802Z,13.60
2022-09-26T07:25:27.044Z,13.60
2022-09-26T07:27:54.227Z,13.64
2022-09-26T07:30:29.110Z,13.67
2022-09-26T07:33:05.730Z,13.70
2022-09-26T07:35:46.814Z,13.74
2022-09-26T07:38:13.661Z,13.76
2022-09-26T07:40:42.038Z,13.83
2022-09-26T07:43:19.786Z,13.85
2022-09-26T07:45:51.469Z,13.86
2022-09-26T07:48:18.491Z,13.87
2022-09-26T07:51:23.633Z,13.88
2022-09-26T07:53:50.914Z,13.89
2022-09-26T07:56:36.251Z,13.90
2022-09-26T07:59:21.854Z,13.84
2022-09-26T08:01:57.672Z,13.81
2022-09-26T08:04:31.606Z,13.83
2022-09-26T08:06:59.294Z,13.84
2022-09-26T08:09:26.229Z,13.87
2022-09-26T08:12:11.568Z,13.96
2022-09-26T08:15:03.743Z,14.05
2022-09-26T08:17:39.784Z,14.12
2022-09-26T08:20:07.990Z,14.22
2022-09-26T08:22:34.967Z,14.23
2022-09-26T08:25:01.940Z,14.20
2022-09-26T08:28:01.469Z,14.20
2022-09-26T08:30:28.400Z,14.17
2022-09-26T08:32:55.639Z,14.19
2022-09-26T08:35:22.356Z,14.18
2022-09-26T08:38:09.301Z,14.16
2022-09-26T08:40:52.419Z,14.17
2022-09-26T08:43:40.671Z,14.17
2022-09-26T08:46:27.665Z,14.20
2022-09-26T08:49:46.505Z,14.28
2022-09-26T08:52:31.665Z,14.32
2022-09-26T08:55:01.584Z,14.34
2022-09-26T08:57:34.100Z,14.39
2022-09-26T09:00:24.083Z,14.50
2022-09-26T09:03:10.719Z,14.55
2022-09-26T09:06:01.272Z,14.56
2022-09-26T09:08:52.096Z,14.54
2022-09-26T09:12:12.757Z,14.56
2022-09-26T09:15:13.903Z,14.68
2022-09-26T09:18:02.227Z,14.70
2022-09-26T09:20:52.210Z,14.75
2022-09-26T09:24:10.997Z,14.77
2022-09-26T09:30:16.460Z,14.83
2022-09-26T09:33:05.900Z,14.78
2022-09-26T09:35:50.114Z,14.82
2022-09-26T09:38:34.400Z,14.81
2022-09-26T09:41:13.379Z,14.81
2022-09-26T09:43:49.243Z,14.84
2022-09-26T09:46:28.028Z,14.92
2022-09-26T09:49:11.712Z,15.02
2022-09-26T09:52:06.537Z,15.16
2022-09-26T09:55:01.226Z,15.30
2022-09-26T09:58:09.816Z,15.40
2022-09-26T10:00:42.206Z,15.46
2022-09-26T10:03:28.583Z,15.45
2022-09-26T10:06:00.700Z,15.43
2022-09-26T10:08:35.688Z,15.44
2022-09-26T10:11:28.776Z,15.43
2022-09-26T10:13:59.845Z,15.46
2022-09-26T10:17:09.910Z,15.48
2022-09-26T10:19:56.081Z,15.50
2022-09-26T10:22:30.708Z,15.52
2022-09-26T10:25:22.041Z,15.53
2022-09-26T10:27:56.679Z,15.53
2022-09-26T10:30:28.527Z,15.60
2022-09-26T10:33:02.659Z,15.56
2022-09-26T10:36:21.167Z,15.62
2022-09-26T10:39:16.579Z,15.66
2022-09-26T10:41:47.234Z,15.66
2022-09-26T10:44:23.139Z,15.67
2022-09-26T10:47:08.449Z,15.75
2022-09-26T10:49:58.986Z,15.76
2022-09-26T10:52:51.842Z,15.86
2022-09-26T10:55:29.565Z,15.95
2022-09-26T10:58:02.109Z,16.10
2022-09-26T11:00:47.322Z,16.14
2022-09-26T11:03:21.887Z,16.18
2022-09-26T11:06:24.387Z,16.13
2022-09-26T11:08:57.494Z,16.10
2022-09-26T11:11:42.887Z,16.15
2022-09-26T11:14:09.964Z,16.25
2022-09-26T11:16:59.456Z,16.26
2022-09-26T11:19:57.236Z,16.32
2022-09-26T11:22:49.589Z,16.37
2022-09-26T11:26:02.799Z,16.39
2022-09-26T11:28:35.773Z,16.49
2022-09-26T11:31:34.965Z,16.53
2022-09-26T11:34:33.959Z,16.52
2022-09-26T11:37:19.640Z,16.53
2022-09-26T11:40:05.980Z,16.53
2022-09-26T11:42:43.691Z,16.60
2022-09-26T11:45:20.635Z,16.61
2022-09-26T11:48:14.263Z,16.66
2022-09-26T11:51:11.229Z,16.66
2022-09-26T11:54:06.173Z,16.58
2022-09-26T11:57:01.075Z,16.58
2022-09-26T11:59:46.389Z,16.57
2022-09-26T12:02:21.938Z,16.53
2022-09-26T12:05:26.783Z,16.55
2022-09-26T12:08:19.013Z,16.58
2022-09-26T12:11:00.874Z,16.63
2022-09-26T12:13:39.690Z,16.64
2022-09-26T12:16:09.721Z,16.63
2022-09-26T12:18:51.810Z,16.61
2022-09-26T12:21:30.038Z,16.57
2022-09-26T12:24:09.813Z,16.57
2022-09-26T12:27:04.220Z,16.58
2022-09-26T12:29:37.901Z,16.60
2022-09-26T12:32:16.890Z,16.59
2022-09-26T12:34:58.615Z,16.66
2022-09-26T12:37:50.200Z,16.66
2022-09-26T12:40:25.729Z,16.68
2022-09-26T12:43:36.718Z,16.68
2022-09-26T12:46:31.622Z,16.74
2022-09-26T12:49:18.535Z,16.75
2022-09-26T12:51:49.013Z,16.77
2022-09-26T12:54:27.949Z,16.75
2022-09-26T12:57:20.554Z,16.71
2022-09-26T13:00:15.026Z,16.73
2022-09-26T13:02:47.647Z,16.77
2022-09-26T13:05:49.678Z,16.76
2022-09-26T13:08:54.687Z,16.72
2022-09-26T13:11:40.756Z,16.75
2022-09-26T13:14:33.275Z,16.77
2022-09-26T13:17:13.122Z,16.79
2022-09-26T13:20:18.778Z,16.81
2022-09-26T13:23:20.892Z,16.80
2022-09-26T13:25:57.119Z,16.81
2022-09-26T13:28:34.140Z,16.86
2022-09-26T13:31:30.569Z,16.90
2022-09-26T13:34:14.534Z,16.95
2022-09-26T13:36:43.346Z,17.07
2022-09-26T13:39:31.722Z,17.08
2022-09-26T13:42:13.815Z,17.15
2022-09-26T13:45:03.012Z,17.27
2022-09-26T13:47:41.030Z,17.34
2022-09-26T13:50:26.083Z,17.38
2022-09-26T13:53:30.696Z,17.33
2022-09-26T13:56:28.386Z,17.34
2022-09-26T13:59:22.785Z,17.35
2022-09-26T14:02:19.089Z,17.30
2022-09-26T14:04:47.777Z,17.30
2022-09-26T14:07:37.860Z,17.32
2022-09-26T14:10:14.109Z,17.31
2022-09-26T14:12:52.971Z,17.38
2022-09-26T14:15:26.169Z,17.38
2022-09-26T14:18:11.531Z,17.40
2022-09-26T14:20:54.010Z,17.36
2022-09-26T14:23:36.459Z,17.30
2022-09-26T14:26:12.280Z,17.34
2022-09-26T14:28:45.856Z,17.37
2022-09-26T14:31:37.726Z,17.45
2022-09-26T14:34:19.763Z,17.45
2022-09-26T14:36:48.208Z,17.41
2022-09-26T14:39:45.021Z,17.34
2022-09-26T14:42:30.344Z,17.30
2022-09-26T14:44:59.957Z,17.32
2022-09-26T14:47:40.744Z,17.30
2022-09-26T14:50:20.090Z,17.35
2022-09-26T14:52:57.986Z,17.36
2022-09-26T14:55:26.757Z,17.36
2022-09-26T14:58:17.205Z,17.36
2022-09-26T15:00:48.675Z,17.33
2022-09-26T15:03:19.746Z,17.33
2022-09-26T15:05:47.763Z,17.42
2022-09-26T15:08:43.731Z,17.44
2022-09-26T15:11:36.380Z,17.47
2022-09-26T15:14:16.734Z,17.44
2022-09-26T15:16:50.537Z,17.42
2022-09-26T15:19:23.414Z,17.42
2022-09-26T15:22:05.018Z,17.42
2022-09-26T15:24:34.507Z,17.45
2022-09-26T15:27:23.381Z,17.41
2022-09-26T15:29:52.909Z,17.41
2022-09-26T15:32:27.995Z,17.30
2022-09-26T15:34:56.693Z,17.18
2022-09-26T15:37:29.583Z,17.14
2022-09-26T15:39:57.550Z,17.10
2022-09-26T15:42:27.365Z,17.05
2022-09-26T15:44:56.964Z,16.97
2022-09-26T15:47:31.558Z,16.97
2022-09-26T15:50:17.244Z,16.95
2022-09-26T15:52:54.967Z,16.96
2022-09-26T15:55:27.839Z,16.99
2022-09-26T15:57:58.754Z,16.99
2022-09-26T16:00:25.647Z,17.00
2022-09-26T16:02:52.827Z,17.04
2022-09-26T16:05:21.536Z,17.02
2022-09-26T16:07:51.641Z,16.98
2022-09-26T16:10:31.939Z,16.95
2022-09-26T16:13:00.117Z,16.99
2022-09-26T16:15:30.872Z,16.96
2022-09-26T16:17:58.814Z,16.88
2022-09-26T16:20:31.344Z,16.81
2022-09-26T16:23:04.344Z,16.79
2022-09-26T16:25:41.146Z,16.73
2022-09-26T16:28:08.154Z,16.71
2022-09-26T16:30:35.001Z,16.68
2022-09-26T16:33:07.946Z,16.66
2022-09-26T16:35:37.348Z,16.62
2022-09-26T16:38:25.195Z,16.59
2022-09-26T16:40:58.960Z,16.53
2022-09-26T16:43:31.338Z,16.51
2022-09-26T16:46:01.519Z,16.46
2022-09-26T16:48:36.152Z,16.43
2022-09-26T16:51:23.119Z,16.38
2022-09-26T16:53:53.849Z,16.33
2022-09-26T16:56:23.457Z,16.29
2022-09-26T16:58:53.850Z,16.29
2022-09-26T17:01:20.908Z,16.17
2022-09-26T17:03:47.800Z,16.06
2022-09-26T17:06:14.560Z,15.96
2022-09-26T17:08:41.302Z,15.96
2022-09-26T17:11:15.193Z,16.00
2022-09-26T17:13:42.164Z,15.98
2022-09-26T17:16:09.745Z,15.86
2022-09-26T17:18:37.284Z,15.86
2022-09-26T17:21:04.247Z,15.72
2022-09-26T17:23:40.351Z,15.85
2022-09-26T17:26:12.146Z,15.90
2022-09-26T17:28:41.366Z,15.94
2022-09-26T17:31:13.071Z,15.89
2022-09-26T17:33:41.383Z,15.89
2022-09-26T17:36:17.347Z,15.85
2022-09-26T17:38:44.097Z,15.66
2022-09-26T17:41:10.896Z,15.51
2022-09-26T17:43:38.685Z,15.39
2022-09-26T17:46:06.256Z,15.41
2022-09-26T17:48:33.310Z,15.32
2022-09-26T17:51:04.275Z,15.37
2022-09-26T17:53:39.117Z,15.45
2022-09-26T17:56:06.766Z,15.54
2022-09-26T17:58:34.795Z,15.51
2022-09-26T18:01:02.805Z,15.45
2022-09-26T18:03:33.129Z,15.43
2022-09-26T18:06:01.401Z,15.20
2022-09-26T18:08:35.540Z,15.31
2022-09-26T18:11:04.890Z,15.34
2022-09-26T18:13:35.598Z,15.29
2022-09-26T18:16:03.114Z,15.18
2022-09-26T18:18:32.682Z,15.12
2022-09-26T18:21:00.799Z,15.03
2022-09-26T18:23:49.788Z,15.01
2022-09-26T18:26:36.351Z,15.11
2022-09-26T18:29:05.842Z,15.11
2022-09-26T18:31:36.632Z,15.01
2022-09-26T18:34:04.276Z,14.85
2022-09-26T18:36:33.084Z,14.72
2022-09-26T18:39:00.594Z,14.77
2022-09-26T18:41:28.838Z,14.81
2022-09-26T18:43:59.135Z,14.82
2022-09-26T18:46:27.205Z,14.70
2022-09-26T18:48:56.996Z,14.77
2022-09-26T18:51:27.171Z,14.81
2022-09-26T18:53:54.529Z,14.91
2022-09-26T18:56:21.422Z,14.86
2022-09-26T18:58:48.367Z,14.93
2022-09-26T19:01:15.634Z,14.92
2022-09-26T19:03:47.021Z,14.89
2022-09-26T19:06:18.392Z,14.76
2022-09-26T19:08:47.493Z,14.72
2022-09-26T19:11:20.246Z,14.80
2022-09-26T19:13:49.607Z,14.68
2022-09-26T19:16:17.529Z,14.55
2022-09-26T19:18:45.431Z,14.54
2022-09-26T19:21:39.933Z,14.44
2022-09-26T19:24:14.650Z,14.34
2022-09-26T19:26:43.820Z,14.37
2022-09-26T19:29:15.599Z,14.42
2022-09-26T19:31:43.402Z,14.39
2022-09-26T19:34:14.912Z,14.34
2022-09-26T19:36:42.354Z,14.32
2022-09-26T19:39:14.514Z,14.36
2022-09-26T19:41:41.602Z,14.22
2022-09-26T19:44:08.434Z,14.32
2022-09-26T19:46:37.241Z,14.27
2022-09-26T19:49:06.062Z,14.34
2022-09-26T19:51:38.028Z,14.33
2022-09-26T19:54:06.412Z,14.23
2022-09-26T19:56:33.566Z,14.27
2022-09-26T19:59:00.548Z,14.03
2022-09-26T20:01:27.518Z,13.87
2022-09-26T20:03:54.538Z,13.79
2022-09-26T20:06:23.969Z,13.81
2022-09-26T20:08:53.223Z,13.71
2022-09-26T20:11:22.221Z,13.82
2022-09-26T20:13:48.928Z,13.79
2022-09-26T20:16:16.325Z,13.92
2022-09-26T20:18:43.512Z,13.71
2022-09-26T20:21:11.061Z,13.60
2022-09-26T20:23:38.190Z,13.81
2022-09-26T20:26:05.183Z,13.83
2022-09-26T20:28:32.704Z,13.61
2022-09-26T20:30:59.729Z,13.43
2022-09-26T20:33:26.978Z,13.46
2022-09-26T20:36:02.966Z,13.56
2022-09-26T20:38:38.178Z,13.39
2022-09-26T20:41:12.906Z,13.27
2022-09-26T20:43:44.465Z,13.32
2022-09-26T20:46:11.936Z,13.12
2022-09-26T20:48:42.075Z,13.29
2022-09-26T20:51:19.293Z,13.07
2022-09-26T20:53:46.195Z,13.01
2022-09-26T20:56:13.279Z,12.89
2022-09-26T20:58:40.186Z,12.86
2022-09-26T21:01:11.961Z,13.09
2022-09-26T21:03:44.262Z,13.12
2022-09-26T21:06:23.921Z,12.99
2022-09-26T21:08:50.906Z,12.88
2022-09-26T21:11:20.247Z,12.93
2022-09-26T21:13:47.569Z,12.88
2022-09-26T21:16:22.746Z,12.98
2022-09-26T21:18:52.820Z,13.03
2022-09-26T21:21:24.261Z,12.88
2022-09-26T21:24:01.149Z,13.07
2022-09-26T21:26:29.050Z,13.07
2022-09-26T21:28:56.167Z,13.10
2022-09-26T21:31:27.822Z,13.08
2022-09-26T21:33:56.766Z,13.07
2022-09-26T21:36:37.323Z,13.05
2022-09-26T21:39:06.300Z,12.97
2022-09-26T21:41:33.422Z,12.90
2022-09-26T21:44:05.960Z,12.92
2022-09-26T21:46:32.977Z,12.92
2022-09-26T21:48:59.870Z,12.79
2022-09-26T21:51:29.084Z,12.67
2022-09-26T21:54:03.746Z,12.73
2022-09-26T21:56:34.802Z,12.73
2022-09-26T21:59:04.344Z,12.63
2022-09-26T22:01:31.213Z,12.65
2022-09-26T22:03:58.054Z,12.71
2022-09-26T22:06:24.803Z,12.56
2022-09-26T22:08:51.682Z,12.49
2022-09-26T22:11:19.133Z,12.50
2022-09-26T22:13:45.960Z,12.56
2022-09-26T22:16:13.497Z,12.63
2022-09-26T22:18:40.780Z,12.69
2022-09-26T22:21:09.487Z,12.65
2022-09-26T22:23:37.656Z,12.56
2022-09-26T22:26:05.069Z,12.54
2022-09-26T22:28:31.926Z,12.48
2022-09-26T22:31:03.004Z,12.53
2022-09-26T22:33:30.055Z,12.56
2022-09-26T22:35:57.088Z,12.56
2022-09-26T22:38:23.804Z,12.58
2022-09-26T22:40:58.610Z,12.66
2022-09-26T22:43:26.659Z,12.60
2022-09-26T22:45:54.242Z,12.61
2022-09-26T22:48:21.168Z,12.55
2022-09-26T22:50:47.880Z,12.48
2022-09-26T22:53:14.586Z,12.52
2022-09-26T22:55:41.335Z,12.51
2022-09-26T22:58:08.105Z,12.48
2022-09-26T23:00:34.839Z,12.37
2022-09-26T23:03:03.303Z,12.40
2022-09-26T23:05:30.112Z,12.48
2022-09-26T23:07:56.991Z,12.53
2022-09-26T23:10:23.776Z,12.36
2022-09-26T23:12:50.585Z,12.46
2022-09-26T23:15:17.523Z,12.35
2022-09-26T23:17:44.292Z,12.26
2022-09-26T23:20:11.104Z,12.26
2022-09-26T23:22:37.902Z,12.20
2022-09-26T23:25:04.980Z,12.19
2022-09-26T23:27:32.080Z,12.09
2022-09-26T23:29:58.881Z,11.99
2022-09-26T23:32:25.722Z,12.04
2022-09-26T23:34:52.524Z,12.05
2022-09-26T23:37:19.256Z,11.99
2022-09-26T23:39:46.035Z,11.99
2022-09-26T23:42:12.925Z,12.00
2022-09-26T23:44:39.820Z,12.08
2022-09-26T23:47:06.664Z,12.11
2022-09-26T23:49:33.429Z,12.10
2022-09-26T23:52:00.465Z,12.06
2022-09-26T23:54:27.235Z,12.12
2022-09-26T23:56:54.035Z,12.19
2022-09-26T23:59:20.826Z,12.07
